Idaho Springs, Colorado
Current Conditions -  °F | °C
As of 1:35 AM on Sunday 23 Nov 2014 (Local Time) from K0CO Reporting Station
Heavy Snow Heavy Snow  
Wind Chill: -9°   Ceiling: 200
Heat Index: 12°   Visibility: 0.25mi
Dew Point:   Wind: 30mph
Humidity: 79%   Direction: 330°NNW
Pressure: 29.7"   Gusts: 39mph
Location:  39.74°N, 105.51°W
Report Text: K0CO 230835Z AUTO 33026G34KT 1/4SM +SN OVC002 M11/M14 A2970 RMK AO2
Loading
Personal Weather Stations






























Interactive Weather Map New forecast layout! Learn more

10-Day Weather Forecast

Advertisements
Track Severe Weather on mobile